createdAt,value
2022-09-17T00:01:54.071Z,1.00
2022-09-17T00:06:59.134Z,1.00
2022-09-17T00:12:04.192Z,1.00
2022-09-17T00:17:09.507Z,1.00
2022-09-17T00:22:15.149Z,1.00
2022-09-17T00:27:20.342Z,1.00
2022-09-17T00:32:25.304Z,1.00
2022-09-17T00:37:31.044Z,1.00
2022-09-17T00:42:36.533Z,1.00
2022-09-17T00:47:48.236Z,1.00
2022-09-17T00:52:59.922Z,1.00
2022-09-17T00:58:08.292Z,99.90
2022-09-17T01:03:14.066Z,99.90
2022-09-17T01:08:28.074Z,1.00
2022-09-17T01:13:44.463Z,99.90
2022-09-17T01:19:10.903Z,99.90
2022-09-17T01:24:36.803Z,99.90
2022-09-17T01:30:06.573Z,99.90
2022-09-17T01:35:19.305Z,99.90
2022-09-17T01:40:27.911Z,99.90
2022-09-17T01:45:38.516Z,99.90
2022-09-17T01:50:58.546Z,99.90
2022-09-17T01:56:04.613Z,99.90
2022-09-17T02:01:13.834Z,99.90
2022-09-17T02:06:22.523Z,99.90
2022-09-17T02:11:28.408Z,99.90
2022-09-17T02:16:36.589Z,99.90
2022-09-17T02:21:53.336Z,99.90
2022-09-17T02:27:01.446Z,1.00
2022-09-17T02:32:07.379Z,1.00
2022-09-17T02:37:13.074Z,1.00
2022-09-17T02:42:33.419Z,1.00
2022-09-17T02:48:16.315Z,1.00
2022-09-17T02:53:28.635Z,1.00
2022-09-17T02:58:48.829Z,1.00
2022-09-17T03:03:58.062Z,1.00
2022-09-17T03:09:04.490Z,1.00
2022-09-17T03:14:10.055Z,1.00
2022-09-17T03:19:15.452Z,1.00
2022-09-17T03:24:20.645Z,1.00
2022-09-17T03:29:25.731Z,1.00
2022-09-17T03:34:31.160Z,1.00
2022-09-17T03:39:36.250Z,1.00
2022-09-17T03:44:45.305Z,1.00
2022-09-17T03:49:49.134Z,1.00
2022-09-17T03:54:54.187Z,1.00
2022-09-17T03:59:59.426Z,1.00
2022-09-17T04:05:04.437Z,1.00
2022-09-17T04:10:10.065Z,1.00
2022-09-17T04:15:15.031Z,1.00
2022-09-17T04:20:20.636Z,1.00
2022-09-17T04:25:26.810Z,1.00
2022-09-17T04:30:32.109Z,1.00
2022-09-17T04:35:37.395Z,1.00
2022-09-17T04:40:42.829Z,1.00
2022-09-17T04:45:50.540Z,1.00
2022-09-17T04:50:55.840Z,1.00
2022-09-17T04:56:01.223Z,1.00
2022-09-17T05:01:06.706Z,1.00
2022-09-17T05:06:12.732Z,1.00
2022-09-17T05:11:17.954Z,1.00
2022-09-17T05:16:24.224Z,1.00
2022-09-17T05:21:29.154Z,1.00
2022-09-17T05:26:34.184Z,1.00
2022-09-17T05:31:39.271Z,1.00
2022-09-17T05:36:44.611Z,1.00
2022-09-17T05:41:50.023Z,1.00
2022-09-17T05:46:55.506Z,1.00
2022-09-17T05:52:00.406Z,1.00
2022-09-17T05:57:06.696Z,1.00
2022-09-17T06:02:14.703Z,1.00
2022-09-17T06:07:20.509Z,1.00
2022-09-17T06:12:25.655Z,1.00
2022-09-17T06:17:35.774Z,1.00
2022-09-17T06:22:40.607Z,1.00
2022-09-17T06:27:45.973Z,1.00
2022-09-17T06:32:51.164Z,1.00
2022-09-17T06:37:56.332Z,1.00
2022-09-17T06:43:02.141Z,1.00
2022-09-17T06:48:09.854Z,1.00
2022-09-17T06:53:16.427Z,1.00
2022-09-17T06:58:20.529Z,1.00
2022-09-17T07:03:25.292Z,1.00
2022-09-17T07:08:32.143Z,1.00
2022-09-17T07:13:37.193Z,1.00
2022-09-17T07:18:42.166Z,1.00
2022-09-17T07:23:47.491Z,1.00
2022-09-17T07:28:52.541Z,1.00
2022-09-17T07:33:57.494Z,1.00
2022-09-17T07:39:02.516Z,1.00
2022-09-17T07:44:09.680Z,1.00
2022-09-17T07:49:13.732Z,1.00
2022-09-17T07:54:18.644Z,1.00
2022-09-17T07:59:23.978Z,1.00
2022-09-17T08:04:29.287Z,1.00
2022-09-17T08:09:35.157Z,1.00
2022-09-17T08:14:41.019Z,1.00
2022-09-17T08:19:46.555Z,1.00
2022-09-17T08:24:51.849Z,1.00
2022-09-17T08:29:57.472Z,1.00
2022-09-17T08:35:02.526Z,1.00
2022-09-17T08:40:10.335Z,1.00
2022-09-17T08:45:22.021Z,1.00
2022-09-17T08:50:37.765Z,1.00
2022-09-17T08:55:48.806Z,1.00
2022-09-17T09:00:58.819Z,1.00
2022-09-17T09:06:07.308Z,1.00
2022-09-17T09:11:21.317Z,1.00
2022-09-17T09:16:31.405Z,1.00
2022-09-17T09:21:42.044Z,1.00
2022-09-17T09:26:51.790Z,1.00
2022-09-17T09:32:17.050Z,1.00
2022-09-17T09:37:34.891Z,1.00
2022-09-17T09:42:40.666Z,1.00
2022-09-17T09:48:00.780Z,99.90
2022-09-17T09:53:14.847Z,99.90
2022-09-17T09:58:37.883Z,1.00
2022-09-17T10:03:46.248Z,99.90
2022-09-17T10:08:57.521Z,1.00
2022-09-17T10:14:26.312Z,99.90
2022-09-17T10:19:32.370Z,99.90
2022-09-17T10:24:40.350Z,99.90
2022-09-17T10:29:51.877Z,99.90
2022-09-17T10:35:08.782Z,42.40
2022-09-17T10:40:23.042Z,1.00
2022-09-17T10:45:32.831Z,1.00
2022-09-17T10:50:38.431Z,1.00
2022-09-17T10:55:50.494Z,1.00
2022-09-17T11:01:20.211Z,1.00
2022-09-17T11:06:51.674Z,1.00
2022-09-17T11:12:09.300Z,1.00
2022-09-17T11:17:42.722Z,1.00
2022-09-17T11:23:15.422Z,1.00
2022-09-17T11:28:49.639Z,1.00
2022-09-17T11:34:12.744Z,1.00
2022-09-17T11:39:24.579Z,1.00
2022-09-17T11:44:41.405Z,1.00
2022-09-17T11:50:02.435Z,1.00
2022-09-17T11:55:25.177Z,1.00
2022-09-17T12:00:34.245Z,1.00
2022-09-17T12:05:45.621Z,1.00
2022-09-17T12:10:54.179Z,1.00
2022-09-17T12:16:11.402Z,99.90
2022-09-17T12:21:19.697Z,99.90
2022-09-17T12:26:31.046Z,99.90
2022-09-17T12:31:48.341Z,99.90
2022-09-17T12:37:13.056Z,99.90
2022-09-17T12:42:27.183Z,99.90
2022-09-17T12:47:56.108Z,99.90
2022-09-17T12:53:08.585Z,99.90
2022-09-17T12:58:41.427Z,99.90
2022-09-17T13:03:49.629Z,99.90
2022-09-17T13:09:21.761Z,99.90
2022-09-17T13:14:33.018Z,99.90
2022-09-17T13:20:14.377Z,1.00
2022-09-17T13:25:22.485Z,1.00
2022-09-17T13:30:33.360Z,1.00
2022-09-17T13:35:41.704Z,1.00
2022-09-17T13:40:47.829Z,99.90
2022-09-17T13:46:06.801Z,1.00
2022-09-17T13:51:32.748Z,1.00
2022-09-17T13:56:46.472Z,1.00
2022-09-17T14:02:18.038Z,1.00
2022-09-17T14:07:29.188Z,1.00
2022-09-17T14:12:45.028Z,1.00
2022-09-17T14:17:52.050Z,1.00
2022-09-17T14:23:01.143Z,99.90
2022-09-17T14:28:12.789Z,1.00
2022-09-17T14:33:25.158Z,1.00
2022-09-17T14:38:45.459Z,1.00
2022-09-17T14:43:56.352Z,1.00
2022-09-17T14:49:26.183Z,1.00
2022-09-17T14:54:36.383Z,1.00
2022-09-17T15:00:00.407Z,99.90
2022-09-17T15:05:21.180Z,99.90
2022-09-17T15:10:27.142Z,99.90
2022-09-17T15:15:33.422Z,99.90
2022-09-17T15:20:39.682Z,99.90
2022-09-17T15:25:47.086Z,99.90
2022-09-17T15:30:52.408Z,99.90
2022-09-17T15:36:21.626Z,99.90
2022-09-17T15:41:35.862Z,99.90
2022-09-17T15:46:41.203Z,99.90
2022-09-17T15:51:47.892Z,99.90
2022-09-17T15:56:56.155Z,99.90
2022-09-17T16:02:03.163Z,99.90
2022-09-17T16:07:30.131Z,26.50
2022-09-17T16:12:36.396Z,1.00
2022-09-17T16:17:47.934Z,15.20
2022-09-17T16:22:57.249Z,1.00
2022-09-17T16:28:05.189Z,86.20
2022-09-17T16:33:13.272Z,99.90
2022-09-17T16:38:18.441Z,99.90
2022-09-17T16:43:23.666Z,99.90
2022-09-17T16:48:29.386Z,99.90
2022-09-17T16:53:34.744Z,99.90
2022-09-17T16:58:44.183Z,99.90
2022-09-17T17:03:54.741Z,99.90
2022-09-17T17:09:01.443Z,99.90
2022-09-17T17:14:09.458Z,99.90
2022-09-17T17:19:14.264Z,99.90
2022-09-17T17:24:19.998Z,99.90
2022-09-17T17:29:25.240Z,99.90
2022-09-17T17:34:31.596Z,99.90
2022-09-17T17:39:36.962Z,99.90
2022-09-17T17:44:43.077Z,99.90
2022-09-17T17:49:50.633Z,99.90
2022-09-17T17:54:58.468Z,99.90
2022-09-17T18:00:05.882Z,99.90
2022-09-17T18:05:12.120Z,99.90
2022-09-17T18:10:19.125Z,99.90
2022-09-17T18:15:25.654Z,99.90
2022-09-17T18:20:31.287Z,99.90
2022-09-17T18:25:36.258Z,99.90
2022-09-17T18:30:44.005Z,99.90
2022-09-17T18:35:49.890Z,99.90
2022-09-17T18:40:55.364Z,99.90
2022-09-17T18:46:01.421Z,99.90
2022-09-17T18:51:09.648Z,98.60
2022-09-17T18:56:28.559Z,82.70
2022-09-17T19:01:34.582Z,13.40
2022-09-17T19:06:40.120Z,19.20
2022-09-17T19:11:45.794Z,1.00
2022-09-17T19:16:52.293Z,1.00
2022-09-17T19:21:57.311Z,1.00
2022-09-17T19:27:08.897Z,1.00
2022-09-17T19:32:14.324Z,1.00
2022-09-17T19:37:19.883Z,1.00
2022-09-17T19:42:26.249Z,1.00
2022-09-17T19:47:32.070Z,1.00
2022-09-17T19:52:38.215Z,1.00
2022-09-17T19:57:43.598Z,1.00
2022-09-17T20:02:53.889Z,1.00
2022-09-17T20:08:00.357Z,1.00
2022-09-17T20:13:08.669Z,1.00
2022-09-17T20:18:13.837Z,1.00
2022-09-17T20:23:19.405Z,1.00
2022-09-17T20:28:24.879Z,1.00
2022-09-17T20:33:30.229Z,1.00
2022-09-17T20:43:48.719Z,1.00
2022-09-17T20:48:54.683Z,1.00
2022-09-17T20:54:03.829Z,1.00
2022-09-17T20:59:22.192Z,1.00
2022-09-17T21:04:27.783Z,1.00
2022-09-17T21:09:34.572Z,1.00
2022-09-17T21:14:41.411Z,1.00
2022-09-17T21:19:47.012Z,1.00
2022-09-17T21:24:52.545Z,1.00
2022-09-17T21:29:57.836Z,1.00
2022-09-17T21:35:04.130Z,1.00
2022-09-17T21:40:10.400Z,1.00
2022-09-17T21:45:15.989Z,1.00
2022-09-17T21:50:21.758Z,1.00
2022-09-17T21:55:27.152Z,1.00
2022-09-17T22:00:33.622Z,2.80
2022-09-17T22:05:38.700Z,48.90
2022-09-17T22:10:43.930Z,99.90
2022-09-17T22:15:51.932Z,86.90
2022-09-17T22:20:57.430Z,1.00
2022-09-17T22:26:04.531Z,99.90
2022-09-17T22:31:13.127Z,99.90
2022-09-17T22:36:21.433Z,99.90
2022-09-17T22:41:32.260Z,99.90
2022-09-17T22:46:39.748Z,99.90
2022-09-17T22:51:47.121Z,99.90
2022-09-17T22:56:51.984Z,99.90
2022-09-17T23:01:57.646Z,99.90
2022-09-17T23:07:03.617Z,99.90
2022-09-17T23:12:08.487Z,99.90
2022-09-17T23:17:14.459Z,99.90
2022-09-17T23:22:21.142Z,99.90
2022-09-17T23:27:27.091Z,99.90
2022-09-17T23:32:32.060Z,99.90
2022-09-17T23:37:38.041Z,99.90
2022-09-17T23:42:43.428Z,99.90
2022-09-17T23:47:48.786Z,99.90
2022-09-17T23:52:53.826Z,99.90
2022-09-17T23:57:59.185Z,99.90
